Terminal Aerodrome Forecast
Issued by NWS

Home | Current Version | Previous Version | Text Only | Print | Product List | Glossary On
Versions: 1 2 3 4 5 6 7 8 9 10 11 12 13
000
FTUS42 KMLB 300200 AAA
TAFFPR
TAF AMD
KFPR 300219Z 3002/3024 33009KT P6SM VCTS FEW012 SCT020CB OVC100
      TEMPO 3002/3004 3SM TSRA BKN020CB
     FM300400 VRB04KT P6SM SCT020 SCT120 BKN250
     FM300700 14003KT P6SM FEW020 SCT120
     FM301400 12007KT P6SM SCT035
     FM301700 11009KT P6SM VCTS SCT040CB=

USA.gov is the U.S. government's official web portal to all federal, state and local government web resources and services.